sensor_id;sensor_type;location;lat;lon;timestamp;P1;durP1;ratioP1;P2;durP2;ratioP2
21360;SDS011;10839;43.206;23.550;2023-10-13T00:00:26;7.47;;;3.88;;
21360;SDS011;10839;43.206;23.550;2023-10-13T00:02:56;6.55;;;3.80;;
21360;SDS011;10839;43.206;23.550;2023-10-13T00:05:26;15.98;;;4.50;;
21360;SDS011;10839;43.206;23.550;2023-10-13T00:08:02;9.13;;;3.83;;
21360;SDS011;10839;43.206;23.550;2023-10-13T00:10:29;5.70;;;3.80;;
21360;SDS011;10839;43.206;23.550;2023-10-13T00:12:55;5.88;;;4.00;;
21360;SDS011;10839;43.206;23.550;2023-10-13T00:15:31;6.78;;;4.00;;
21360;SDS011;10839;43.206;23.550;2023-10-13T00:18:06;8.63;;;3.95;;
21360;SDS011;10839;43.206;23.550;2023-10-13T00:20:43;6.03;;;3.80;;
21360;SDS011;10839;43.206;23.550;2023-10-13T00:23:14;9.30;;;4.63;;
21360;SDS011;10839;43.206;23.550;2023-10-13T00:25:47;7.57;;;4.20;;
21360;SDS011;10839;43.206;23.550;2023-10-13T00:28:25;11.80;;;3.90;;
21360;SDS011;10839;43.206;23.550;2023-10-13T00:31:01;4.30;;;3.70;;
21360;SDS011;10839;43.206;23.550;2023-10-13T00:33:39;8.93;;;4.05;;
21360;SDS011;10839;43.206;23.550;2023-10-13T00:36:07;7.95;;;3.80;;
21360;SDS011;10839;43.206;23.550;2023-10-13T00:38:42;8.93;;;3.88;;
21360;SDS011;10839;43.206;23.550;2023-10-13T00:41:08;7.60;;;4.15;;
21360;SDS011;10839;43.206;23.550;2023-10-13T00:43:47;4.03;;;3.50;;
21360;SDS011;10839;43.206;23.550;2023-10-13T00:46:32;8.70;;;3.80;;
21360;SDS011;10839;43.206;23.550;2023-10-13T00:49:00;5.40;;;3.83;;
21360;SDS011;10839;43.206;23.550;2023-10-13T00:51:29;5.88;;;3.42;;
21360;SDS011;10839;43.206;23.550;2023-10-13T00:54:04;7.20;;;4.18;;
21360;SDS011;10839;43.206;23.550;2023-10-13T00:56:38;9.88;;;4.15;;
21360;SDS011;10839;43.206;23.550;2023-10-13T00:59:23;7.57;;;3.90;;
21360;SDS011;10839;43.206;23.550;2023-10-13T01:01:51;8.57;;;4.13;;
21360;SDS011;10839;43.206;23.550;2023-10-13T01:04:21;6.32;;;4.03;;
21360;SDS011;10839;43.206;23.550;2023-10-13T01:06:48;6.18;;;3.80;;
21360;SDS011;10839;43.206;23.550;2023-10-13T01:09:16;6.22;;;4.03;;
21360;SDS011;10839;43.206;23.550;2023-10-13T01:11:43;9.23;;;3.55;;
21360;SDS011;10839;43.206;23.550;2023-10-13T01:14:12;8.13;;;3.85;;
21360;SDS011;10839;43.206;23.550;2023-10-13T01:16:40;7.85;;;3.30;;
21360;SDS011;10839;43.206;23.550;2023-10-13T01:19:12;7.88;;;4.30;;
21360;SDS011;10839;43.206;23.550;2023-10-13T01:21:39;9.05;;;3.92;;
21360;SDS011;10839;43.206;23.550;2023-10-13T01:24:14;8.02;;;4.13;;
21360;SDS011;10839;43.206;23.550;2023-10-13T01:26:42;19.05;;;4.30;;
21360;SDS011;10839;43.206;23.550;2023-10-13T01:29:09;6.07;;;3.70;;
21360;SDS011;10839;43.206;23.550;2023-10-13T01:31:40;6.28;;;3.60;;
21360;SDS011;10839;43.206;23.550;2023-10-13T01:34:11;7.05;;;3.83;;
21360;SDS011;10839;43.206;23.550;2023-10-13T01:36:50;9.75;;;3.83;;
21360;SDS011;10839;43.206;23.550;2023-10-13T01:39:17;8.40;;;3.78;;
21360;SDS011;10839;43.206;23.550;2023-10-13T01:41:45;5.03;;;3.60;;
21360;SDS011;10839;43.206;23.550;2023-10-13T01:44:11;6.80;;;3.80;;
21360;SDS011;10839;43.206;23.550;2023-10-13T01:46:37;5.43;;;4.00;;
21360;SDS011;10839;43.206;23.550;2023-10-13T01:49:03;7.60;;;4.03;;
21360;SDS011;10839;43.206;23.550;2023-10-13T01:51:29;6.05;;;3.63;;
21360;SDS011;10839;43.206;23.550;2023-10-13T01:53:55;7.00;;;3.75;;
21360;SDS011;10839;43.206;23.550;2023-10-13T01:56:24;6.40;;;4.07;;
21360;SDS011;10839;43.206;23.550;2023-10-13T01:58:50;11.77;;;4.25;;
21360;SDS011;10839;43.206;23.550;2023-10-13T02:01:17;6.45;;;3.70;;
21360;SDS011;10839;43.206;23.550;2023-10-13T02:03:55;8.70;;;3.88;;
21360;SDS011;10839;43.206;23.550;2023-10-13T02:06:32;9.52;;;4.68;;
21360;SDS011;10839;43.206;23.550;2023-10-13T02:09:08;10.43;;;4.18;;
21360;SDS011;10839;43.206;23.550;2023-10-13T02:11:51;6.22;;;3.85;;
21360;SDS011;10839;43.206;23.550;2023-10-13T02:14:22;8.60;;;4.25;;
21360;SDS011;10839;43.206;23.550;2023-10-13T02:16:49;7.25;;;3.70;;
21360;SDS011;10839;43.206;23.550;2023-10-13T02:19:16;7.63;;;3.95;;
21360;SDS011;10839;43.206;23.550;2023-10-13T02:21:45;9.32;;;4.07;;
21360;SDS011;10839;43.206;23.550;2023-10-13T02:24:21;7.53;;;4.20;;
21360;SDS011;10839;43.206;23.550;2023-10-13T02:26:55;9.45;;;3.80;;
21360;SDS011;10839;43.206;23.550;2023-10-13T02:31:54;8.55;;;3.80;;
21360;SDS011;10839;43.206;23.550;2023-10-13T02:34:21;6.50;;;3.88;;
21360;SDS011;10839;43.206;23.550;2023-10-13T02:36:50;10.88;;;4.15;;
21360;SDS011;10839;43.206;23.550;2023-10-13T02:39:16;5.55;;;3.55;;
21360;SDS011;10839;43.206;23.550;2023-10-13T02:41:41;10.32;;;3.70;;
21360;SDS011;10839;43.206;23.550;2023-10-13T02:44:13;6.55;;;4.05;;
21360;SDS011;10839;43.206;23.550;2023-10-13T02:46:53;5.03;;;3.35;;
21360;SDS011;10839;43.206;23.550;2023-10-13T02:49:22;6.68;;;3.58;;
21360;SDS011;10839;43.206;23.550;2023-10-13T02:51:52;4.03;;;3.00;;
21360;SDS011;10839;43.206;23.550;2023-10-13T02:54:24;5.63;;;3.10;;
21360;SDS011;10839;43.206;23.550;2023-10-13T02:56:56;5.47;;;3.72;;
21360;SDS011;10839;43.206;23.550;2023-10-13T02:59:29;5.43;;;3.37;;
21360;SDS011;10839;43.206;23.550;2023-10-13T03:02:06;9.27;;;4.00;;
21360;SDS011;10839;43.206;23.550;2023-10-13T03:04:53;8.38;;;3.65;;
21360;SDS011;10839;43.206;23.550;2023-10-13T03:07:35;7.45;;;3.70;;
21360;SDS011;10839;43.206;23.550;2023-10-13T03:10:02;7.40;;;4.10;;
21360;SDS011;10839;43.206;23.550;2023-10-13T03:12:36;6.43;;;4.25;;
21360;SDS011;10839;43.206;23.550;2023-10-13T03:15:03;9.00;;;4.65;;
21360;SDS011;10839;43.206;23.550;2023-10-13T03:17:42;14.50;;;4.93;;
21360;SDS011;10839;43.206;23.550;2023-10-13T03:20:10;6.43;;;4.38;;
21360;SDS011;10839;43.206;23.550;2023-10-13T03:22:39;7.85;;;4.80;;
21360;SDS011;10839;43.206;23.550;2023-10-13T03:25:06;7.72;;;4.18;;
21360;SDS011;10839;43.206;23.550;2023-10-13T03:27:38;6.10;;;3.88;;
21360;SDS011;10839;43.206;23.550;2023-10-13T03:30:24;6.93;;;4.60;;
21360;SDS011;10839;43.206;23.550;2023-10-13T03:33:09;8.23;;;4.30;;
21360;SDS011;10839;43.206;23.550;2023-10-13T03:35:37;7.25;;;4.25;;
21360;SDS011;10839;43.206;23.550;2023-10-13T03:38:08;7.97;;;4.45;;
21360;SDS011;10839;43.206;23.550;2023-10-13T03:40:44;7.32;;;4.53;;
21360;SDS011;10839;43.206;23.550;2023-10-13T03:43:14;8.82;;;5.15;;
21360;SDS011;10839;43.206;23.550;2023-10-13T03:45:48;6.90;;;4.30;;
21360;SDS011;10839;43.206;23.550;2023-10-13T03:48:18;10.77;;;5.03;;
21360;SDS011;10839;43.206;23.550;2023-10-13T03:50:53;9.82;;;4.93;;
21360;SDS011;10839;43.206;23.550;2023-10-13T03:53:41;6.15;;;4.90;;
21360;SDS011;10839;43.206;23.550;2023-10-13T03:56:28;10.45;;;5.57;;
21360;SDS011;10839;43.206;23.550;2023-10-13T03:59:07;10.70;;;5.15;;
21360;SDS011;10839;43.206;23.550;2023-10-13T04:01:43;9.77;;;5.32;;
21360;SDS011;10839;43.206;23.550;2023-10-13T04:04:23;8.77;;;5.43;;
21360;SDS011;10839;43.206;23.550;2023-10-13T04:07:09;12.63;;;5.43;;
21360;SDS011;10839;43.206;23.550;2023-10-13T04:09:38;10.32;;;4.97;;
21360;SDS011;10839;43.206;23.550;2023-10-13T04:12:13;8.77;;;5.32;;
21360;SDS011;10839;43.206;23.550;2023-10-13T04:14:58;7.60;;;5.05;;
21360;SDS011;10839;43.206;23.550;2023-10-13T04:17:47;8.35;;;5.40;;
21360;SDS011;10839;43.206;23.550;2023-10-13T04:20:14;12.80;;;5.28;;
21360;SDS011;10839;43.206;23.550;2023-10-13T04:22:53;9.40;;;4.93;;
21360;SDS011;10839;43.206;23.550;2023-10-13T04:25:22;9.48;;;5.20;;
21360;SDS011;10839;43.206;23.550;2023-10-13T04:28:05;7.53;;;5.05;;
21360;SDS011;10839;43.206;23.550;2023-10-13T04:30:44;8.65;;;5.18;;
21360;SDS011;10839;43.206;23.550;2023-10-13T04:33:21;9.10;;;5.20;;
21360;SDS011;10839;43.206;23.550;2023-10-13T04:36:06;10.48;;;5.00;;
21360;SDS011;10839;43.206;23.550;2023-10-13T04:38:46;10.40;;;4.88;;
21360;SDS011;10839;43.206;23.550;2023-10-13T04:41:38;10.68;;;5.50;;
21360;SDS011;10839;43.206;23.550;2023-10-13T04:46:53;11.20;;;5.53;;
21360;SDS011;10839;43.206;23.550;2023-10-13T04:49:34;9.65;;;4.95;;
21360;SDS011;10839;43.206;23.550;2023-10-13T04:52:07;9.07;;;4.85;;
21360;SDS011;10839;43.206;23.550;2023-10-13T04:54:34;8.52;;;3.95;;
21360;SDS011;10839;43.206;23.550;2023-10-13T04:57:16;11.15;;;4.80;;
21360;SDS011;10839;43.206;23.550;2023-10-13T05:00:03;6.78;;;3.97;;
21360;SDS011;10839;43.206;23.550;2023-10-13T05:02:40;8.98;;;4.68;;
21360;SDS011;10839;43.206;23.550;2023-10-13T05:05:13;8.00;;;4.53;;
21360;SDS011;10839;43.206;23.550;2023-10-13T05:07:40;9.73;;;4.53;;
21360;SDS011;10839;43.206;23.550;2023-10-13T05:10:24;9.73;;;4.75;;
21360;SDS011;10839;43.206;23.550;2023-10-13T05:13:09;7.95;;;4.80;;
21360;SDS011;10839;43.206;23.550;2023-10-13T05:15:53;12.32;;;4.97;;
21360;SDS011;10839;43.206;23.550;2023-10-13T05:18:37;10.40;;;4.82;;
21360;SDS011;10839;43.206;23.550;2023-10-13T05:21:21;7.68;;;4.85;;
21360;SDS011;10839;43.206;23.550;2023-10-13T05:24:06;10.13;;;4.68;;
21360;SDS011;10839;43.206;23.550;2023-10-13T05:26:51;7.85;;;4.57;;
21360;SDS011;10839;43.206;23.550;2023-10-13T05:29:44;6.95;;;4.70;;
21360;SDS011;10839;43.206;23.550;2023-10-13T05:32:29;8.55;;;4.68;;
21360;SDS011;10839;43.206;23.550;2023-10-13T05:35:14;6.28;;;4.45;;
21360;SDS011;10839;43.206;23.550;2023-10-13T05:38:00;10.32;;;4.70;;
21360;SDS011;10839;43.206;23.550;2023-10-13T05:40:51;7.50;;;4.35;;
21360;SDS011;10839;43.206;23.550;2023-10-13T05:43:36;7.07;;;3.97;;
21360;SDS011;10839;43.206;23.550;2023-10-13T05:46:21;7.97;;;4.35;;
21360;SDS011;10839;43.206;23.550;2023-10-13T05:48:55;6.10;;;3.75;;
21360;SDS011;10839;43.206;23.550;2023-10-13T05:51:27;7.57;;;4.63;;
21360;SDS011;10839;43.206;23.550;2023-10-13T05:54:00;10.77;;;4.40;;
21360;SDS011;10839;43.206;23.550;2023-10-13T05:56:35;4.78;;;3.97;;
21360;SDS011;10839;43.206;23.550;2023-10-13T05:59:20;6.07;;;3.88;;
21360;SDS011;10839;43.206;23.550;2023-10-13T06:02:04;13.32;;;4.40;;
21360;SDS011;10839;43.206;23.550;2023-10-13T06:04:48;7.15;;;4.20;;
21360;SDS011;10839;43.206;23.550;2023-10-13T06:07:33;5.80;;;4.20;;
21360;SDS011;10839;43.206;23.550;2023-10-13T06:10:17;6.68;;;3.72;;
21360;SDS011;10839;43.206;23.550;2023-10-13T06:13:01;6.90;;;4.10;;
21360;SDS011;10839;43.206;23.550;2023-10-13T06:15:46;5.13;;;3.72;;
21360;SDS011;10839;43.206;23.550;2023-10-13T06:18:30;4.05;;;3.25;;
21360;SDS011;10839;43.206;23.550;2023-10-13T06:21:14;5.97;;;3.90;;
21360;SDS011;10839;43.206;23.550;2023-10-13T06:23:58;7.65;;;3.60;;
21360;SDS011;10839;43.206;23.550;2023-10-13T06:26:47;7.15;;;3.70;;
21360;SDS011;10839;43.206;23.550;2023-10-13T06:29:32;5.88;;;3.63;;
21360;SDS011;10839;43.206;23.550;2023-10-13T06:31:58;7.85;;;3.17;;
21360;SDS011;10839;43.206;23.550;2023-10-13T06:34:27;6.65;;;3.60;;
21360;SDS011;10839;43.206;23.550;2023-10-13T06:37:13;4.47;;;3.58;;
21360;SDS011;10839;43.206;23.550;2023-10-13T06:39:54;8.40;;;3.63;;
21360;SDS011;10839;43.206;23.550;2023-10-13T06:42:22;6.47;;;3.70;;
21360;SDS011;10839;43.206;23.550;2023-10-13T06:44:54;7.00;;;3.28;;
21360;SDS011;10839;43.206;23.550;2023-10-13T06:47:21;8.07;;;4.50;;
21360;SDS011;10839;43.206;23.550;2023-10-13T06:49:48;6.32;;;4.03;;
21360;SDS011;10839;43.206;23.550;2023-10-13T06:52:17;5.18;;;4.18;;
21360;SDS011;10839;43.206;23.550;2023-10-13T06:54:43;6.28;;;4.10;;
21360;SDS011;10839;43.206;23.550;2023-10-13T06:57:09;5.93;;;3.50;;
21360;SDS011;10839;43.206;23.550;2023-10-13T06:59:55;6.40;;;3.47;;
21360;SDS011;10839;43.206;23.550;2023-10-13T07:02:21;8.13;;;3.55;;
21360;SDS011;10839;43.206;23.550;2023-10-13T07:04:47;4.47;;;3.78;;
21360;SDS011;10839;43.206;23.550;2023-10-13T07:07:31;6.25;;;3.47;;
21360;SDS011;10839;43.206;23.550;2023-10-13T07:09:58;7.82;;;3.50;;
21360;SDS011;10839;43.206;23.550;2023-10-13T07:12:24;7.43;;;3.70;;
21360;SDS011;10839;43.206;23.550;2023-10-13T07:14:53;4.47;;;3.10;;
21360;SDS011;10839;43.206;23.550;2023-10-13T07:17:39;5.38;;;3.42;;
21360;SDS011;10839;43.206;23.550;2023-10-13T07:20:06;5.68;;;4.10;;
21360;SDS011;10839;43.206;23.550;2023-10-13T07:22:49;6.47;;;4.15;;
21360;SDS011;10839;43.206;23.550;2023-10-13T07:25:34;8.85;;;4.38;;
21360;SDS011;10839;43.206;23.550;2023-10-13T07:28:06;11.85;;;3.60;;
21360;SDS011;10839;43.206;23.550;2023-10-13T07:30:37;9.07;;;4.40;;
21360;SDS011;10839;43.206;23.550;2023-10-13T07:33:24;8.90;;;4.07;;
21360;SDS011;10839;43.206;23.550;2023-10-13T07:36:03;11.48;;;3.90;;
21360;SDS011;10839;43.206;23.550;2023-10-13T07:38:41;14.65;;;4.70;;
21360;SDS011;10839;43.206;23.550;2023-10-13T07:41:36;5.95;;;3.78;;
21360;SDS011;10839;43.206;23.550;2023-10-13T07:44:02;11.07;;;4.50;;
21360;SDS011;10839;43.206;23.550;2023-10-13T07:46:30;6.28;;;4.20;;
21360;SDS011;10839;43.206;23.550;2023-10-13T07:48:58;8.20;;;4.15;;
21360;SDS011;10839;43.206;23.550;2023-10-13T07:51:39;7.85;;;4.22;;
21360;SDS011;10839;43.206;23.550;2023-10-13T07:54:13;7.43;;;4.03;;
21360;SDS011;10839;43.206;23.550;2023-10-13T07:56:47;6.40;;;4.43;;
21360;SDS011;10839;43.206;23.550;2023-10-13T07:59:16;12.55;;;5.80;;
21360;SDS011;10839;43.206;23.550;2023-10-13T08:01:42;8.30;;;3.95;;
21360;SDS011;10839;43.206;23.550;2023-10-13T08:04:09;13.20;;;4.82;;
21360;SDS011;10839;43.206;23.550;2023-10-13T08:06:40;12.30;;;5.00;;
21360;SDS011;10839;43.206;23.550;2023-10-13T08:09:07;13.07;;;6.60;;
21360;SDS011;10839;43.206;23.550;2023-10-13T08:11:53;11.43;;;5.97;;
21360;SDS011;10839;43.206;23.550;2023-10-13T08:14:20;9.88;;;4.45;;
21360;SDS011;10839;43.206;23.550;2023-10-13T08:16:49;10.35;;;3.92;;
21360;SDS011;10839;43.206;23.550;2023-10-13T08:19:19;13.55;;;4.30;;
21360;SDS011;10839;43.206;23.550;2023-10-13T08:22:07;12.88;;;4.78;;
21360;SDS011;10839;43.206;23.550;2023-10-13T08:24:43;7.70;;;3.88;;
21360;SDS011;10839;43.206;23.550;2023-10-13T08:27:09;11.70;;;5.78;;
21360;SDS011;10839;43.206;23.550;2023-10-13T08:29:54;9.80;;;5.38;;
21360;SDS011;10839;43.206;23.550;2023-10-13T08:32:20;5.75;;;3.95;;
21360;SDS011;10839;43.206;23.550;2023-10-13T08:34:53;8.20;;;5.22;;
21360;SDS011;10839;43.206;23.550;2023-10-13T08:37:22;8.15;;;4.32;;
21360;SDS011;10839;43.206;23.550;2023-10-13T08:42:37;24.60;;;17.83;;
21360;SDS011;10839;43.206;23.550;2023-10-13T08:45:07;10.95;;;7.05;;
21360;SDS011;10839;43.206;23.550;2023-10-13T08:47:55;10.50;;;7.38;;
21360;SDS011;10839;43.206;23.550;2023-10-13T08:53:18;9.63;;;3.42;;
21360;SDS011;10839;43.206;23.550;2023-10-13T08:58:30;5.20;;;3.95;;
21360;SDS011;10839;43.206;23.550;2023-10-13T09:01:29;7.65;;;4.18;;
21360;SDS011;10839;43.206;23.550;2023-10-13T09:04:14;7.63;;;3.80;;
21360;SDS011;10839;43.206;23.550;2023-10-13T09:09:31;7.57;;;3.40;;
21360;SDS011;10839;43.206;23.550;2023-10-13T09:12:16;7.53;;;3.53;;
21360;SDS011;10839;43.206;23.550;2023-10-13T09:14:52;12.27;;;5.25;;
21360;SDS011;10839;43.206;23.550;2023-10-13T09:17:31;29.42;;;18.95;;
21360;SDS011;10839;43.206;23.550;2023-10-13T09:20:02;25.67;;;16.50;;
21360;SDS011;10839;43.206;23.550;2023-10-13T09:22:51;17.83;;;9.85;;
21360;SDS011;10839;43.206;23.550;2023-10-13T09:25:32;11.18;;;7.68;;
21360;SDS011;10839;43.206;23.550;2023-10-13T09:28:15;12.90;;;6.70;;
21360;SDS011;10839;43.206;23.550;2023-10-13T09:30:46;8.95;;;5.13;;
21360;SDS011;10839;43.206;23.550;2023-10-13T09:33:18;11.88;;;4.68;;
21360;SDS011;10839;43.206;23.550;2023-10-13T09:36:15;6.78;;;4.15;;
21360;SDS011;10839;43.206;23.550;2023-10-13T09:38:42;9.13;;;4.45;;
21360;SDS011;10839;43.206;23.550;2023-10-13T09:41:28;11.95;;;5.82;;
21360;SDS011;10839;43.206;23.550;2023-10-13T09:43:57;16.90;;;10.40;;
21360;SDS011;10839;43.206;23.550;2023-10-13T09:46:25;13.20;;;5.60;;
21360;SDS011;10839;43.206;23.550;2023-10-13T09:48:59;10.82;;;4.97;;
21360;SDS011;10839;43.206;23.550;2023-10-13T09:51:40;12.40;;;4.63;;
21360;SDS011;10839;43.206;23.550;2023-10-13T09:56:53;7.35;;;3.42;;
21360;SDS011;10839;43.206;23.550;2023-10-13T09:59:36;6.43;;;3.05;;
21360;SDS011;10839;43.206;23.550;2023-10-13T10:02:18;10.65;;;3.00;;
21360;SDS011;10839;43.206;23.550;2023-10-13T10:04:54;9.95;;;3.65;;
21360;SDS011;10839;43.206;23.550;2023-10-13T10:07:38;19.33;;;10.68;;
21360;SDS011;10839;43.206;23.550;2023-10-13T10:10:05;8.65;;;5.80;;
21360;SDS011;10839;43.206;23.550;2023-10-13T10:12:56;9.05;;;4.95;;
21360;SDS011;10839;43.206;23.550;2023-10-13T10:15:36;9.80;;;3.28;;
21360;SDS011;10839;43.206;23.550;2023-10-13T10:18:19;6.28;;;2.85;;
21360;SDS011;10839;43.206;23.550;2023-10-13T10:20:51;8.82;;;3.80;;
21360;SDS011;10839;43.206;23.550;2023-10-13T10:23:24;9.48;;;3.35;;
21360;SDS011;10839;43.206;23.550;2023-10-13T10:25:54;6.57;;;2.95;;
21360;SDS011;10839;43.206;23.550;2023-10-13T10:28:37;5.68;;;3.33;;
21360;SDS011;10839;43.206;23.550;2023-10-13T10:31:08;5.10;;;3.10;;
21360;SDS011;10839;43.206;23.550;2023-10-13T10:33:38;7.70;;;3.20;;
21360;SDS011;10839;43.206;23.550;2023-10-13T10:36:05;4.13;;;3.20;;
21360;SDS011;10839;43.206;23.550;2023-10-13T10:38:31;7.82;;;3.22;;
21360;SDS011;10839;43.206;23.550;2023-10-13T10:41:05;10.93;;;3.73;;
21360;SDS011;10839;43.206;23.550;2023-10-13T10:46:13;10.65;;;3.50;;
21360;SDS011;10839;43.206;23.550;2023-10-13T10:48:39;6.07;;;2.85;;
21360;SDS011;10839;43.206;23.550;2023-10-13T10:51:09;12.85;;;3.50;;
21360;SDS011;10839;43.206;23.550;2023-10-13T10:53:51;4.53;;;3.10;;
21360;SDS011;10839;43.206;23.550;2023-10-13T10:56:21;6.65;;;3.50;;
21360;SDS011;10839;43.206;23.550;2023-10-13T10:59:02;10.35;;;3.58;;
21360;SDS011;10839;43.206;23.550;2023-10-13T11:01:45;12.20;;;3.97;;
21360;SDS011;10839;43.206;23.550;2023-10-13T11:04:12;11.90;;;6.50;;
21360;SDS011;10839;43.206;23.550;2023-10-13T11:06:47;15.90;;;4.95;;
21360;SDS011;10839;43.206;23.550;2023-10-13T11:09:14;10.63;;;4.07;;
21360;SDS011;10839;43.206;23.550;2023-10-13T11:11:53;6.20;;;3.50;;
21360;SDS011;10839;43.206;23.550;2023-10-13T11:14:22;7.25;;;3.10;;
21360;SDS011;10839;43.206;23.550;2023-10-13T11:16:50;10.75;;;3.40;;
21360;SDS011;10839;43.206;23.550;2023-10-13T11:19:21;7.10;;;3.38;;
21360;SDS011;10839;43.206;23.550;2023-10-13T11:22:09;6.53;;;2.90;;
21360;SDS011;10839;43.206;23.550;2023-10-13T11:24:58;8.07;;;3.20;;
21360;SDS011;10839;43.206;23.550;2023-10-13T11:27:29;11.10;;;3.80;;
21360;SDS011;10839;43.206;23.550;2023-10-13T11:30:16;7.80;;;3.40;;
21360;SDS011;10839;43.206;23.550;2023-10-13T11:33:03;6.30;;;4.15;;
21360;SDS011;10839;43.206;23.550;2023-10-13T11:35:33;8.30;;;2.88;;
21360;SDS011;10839;43.206;23.550;2023-10-13T11:38:22;8.38;;;2.83;;
21360;SDS011;10839;43.206;23.550;2023-10-13T11:41:13;8.38;;;4.50;;
21360;SDS011;10839;43.206;23.550;2023-10-13T11:43:50;9.93;;;4.50;;
21360;SDS011;10839;43.206;23.550;2023-10-13T11:46:21;8.63;;;3.78;;
21360;SDS011;10839;43.206;23.550;2023-10-13T11:49:05;8.85;;;3.58;;
21360;SDS011;10839;43.206;23.550;2023-10-13T11:51:38;14.10;;;3.83;;
21360;SDS011;10839;43.206;23.550;2023-10-13T11:54:04;11.82;;;3.47;;
21360;SDS011;10839;43.206;23.550;2023-10-13T11:56:30;5.05;;;2.60;;
21360;SDS011;10839;43.206;23.550;2023-10-13T11:58:56;7.65;;;3.90;;
21360;SDS011;10839;43.206;23.550;2023-10-13T12:01:27;10.50;;;4.47;;
21360;SDS011;10839;43.206;23.550;2023-10-13T12:04:11;8.73;;;3.88;;
21360;SDS011;10839;43.206;23.550;2023-10-13T12:06:56;9.00;;;4.13;;
21360;SDS011;10839;43.206;23.550;2023-10-13T12:09:36;7.93;;;3.60;;
21360;SDS011;10839;43.206;23.550;2023-10-13T12:12:29;7.43;;;3.72;;
21360;SDS011;10839;43.206;23.550;2023-10-13T12:15:05;10.65;;;4.85;;
21360;SDS011;10839;43.206;23.550;2023-10-13T12:17:34;8.07;;;3.53;;
21360;SDS011;10839;43.206;23.550;2023-10-13T12:20:01;8.85;;;3.72;;
21360;SDS011;10839;43.206;23.550;2023-10-13T12:22:35;8.02;;;2.75;;
21360;SDS011;10839;43.206;23.550;2023-10-13T12:25:06;6.50;;;2.58;;
21360;SDS011;10839;43.206;23.550;2023-10-13T12:28:00;7.90;;;2.75;;
21360;SDS011;10839;43.206;23.550;2023-10-13T12:30:47;6.82;;;2.90;;
21360;SDS011;10839;43.206;23.550;2023-10-13T12:33:21;8.40;;;4.47;;
21360;SDS011;10839;43.206;23.550;2023-10-13T12:36:02;7.43;;;3.80;;
21360;SDS011;10839;43.206;23.550;2023-10-13T12:38:34;20.13;;;12.30;;
21360;SDS011;10839;43.206;23.550;2023-10-13T12:41:12;12.85;;;5.70;;
21360;SDS011;10839;43.206;23.550;2023-10-13T12:43:57;11.63;;;6.10;;
21360;SDS011;10839;43.206;23.550;2023-10-13T12:46:41;6.88;;;2.90;;
21360;SDS011;10839;43.206;23.550;2023-10-13T12:49:25;10.55;;;3.63;;
21360;SDS011;10839;43.206;23.550;2023-10-13T12:52:06;7.75;;;3.17;;
21360;SDS011;10839;43.206;23.550;2023-10-13T12:54:47;8.77;;;4.20;;
21360;SDS011;10839;43.206;23.550;2023-10-13T12:57:23;9.57;;;3.83;;
21360;SDS011;10839;43.206;23.550;2023-10-13T12:59:53;5.20;;;3.10;;
21360;SDS011;10839;43.206;23.550;2023-10-13T13:02:23;12.73;;;3.40;;
21360;SDS011;10839;43.206;23.550;2023-10-13T13:04:51;7.45;;;3.17;;
21360;SDS011;10839;43.206;23.550;2023-10-13T13:07:31;7.63;;;3.63;;
21360;SDS011;10839;43.206;23.550;2023-10-13T13:10:09;10.25;;;3.60;;
21360;SDS011;10839;43.206;23.550;2023-10-13T13:12:37;30.35;;;16.00;;
21360;SDS011;10839;43.206;23.550;2023-10-13T13:15:04;11.68;;;4.68;;
21360;SDS011;10839;43.206;23.550;2023-10-13T13:17:34;15.70;;;5.40;;
21360;SDS011;10839;43.206;23.550;2023-10-13T13:20:01;7.90;;;3.70;;
21360;SDS011;10839;43.206;23.550;2023-10-13T13:22:39;9.93;;;4.90;;
21360;SDS011;10839;43.206;23.550;2023-10-13T13:25:05;15.35;;;6.30;;
21360;SDS011;10839;43.206;23.550;2023-10-13T13:27:36;9.88;;;5.95;;
21360;SDS011;10839;43.206;23.550;2023-10-13T13:30:02;22.55;;;13.95;;
21360;SDS011;10839;43.206;23.550;2023-10-13T13:32:38;13.38;;;8.52;;
21360;SDS011;10839;43.206;23.550;2023-10-13T13:35:06;17.17;;;7.55;;
21360;SDS011;10839;43.206;23.550;2023-10-13T13:37:34;12.85;;;6.28;;
21360;SDS011;10839;43.206;23.550;2023-10-13T13:40:05;9.88;;;5.30;;
21360;SDS011;10839;43.206;23.550;2023-10-13T13:42:42;12.23;;;4.25;;
21360;SDS011;10839;43.206;23.550;2023-10-13T13:45:17;10.73;;;3.78;;
21360;SDS011;10839;43.206;23.550;2023-10-13T13:47:48;13.02;;;4.63;;
21360;SDS011;10839;43.206;23.550;2023-10-13T13:50:19;8.30;;;3.95;;
21360;SDS011;10839;43.206;23.550;2023-10-13T13:52:50;11.73;;;4.35;;
21360;SDS011;10839;43.206;23.550;2023-10-13T13:55:19;10.15;;;3.13;;
21360;SDS011;10839;43.206;23.550;2023-10-13T13:57:45;11.05;;;3.28;;
21360;SDS011;10839;43.206;23.550;2023-10-13T14:00:12;8.25;;;4.45;;
21360;SDS011;10839;43.206;23.550;2023-10-13T14:03:07;20.00;;;12.13;;
21360;SDS011;10839;43.206;23.550;2023-10-13T14:05:59;23.60;;;12.23;;
21360;SDS011;10839;43.206;23.550;2023-10-13T14:08:26;10.40;;;5.50;;
21360;SDS011;10839;43.206;23.550;2023-10-13T14:10:55;13.32;;;5.07;;
21360;SDS011;10839;43.206;23.550;2023-10-13T14:13:47;13.35;;;4.80;;
21360;SDS011;10839;43.206;23.550;2023-10-13T14:16:20;17.75;;;9.60;;
21360;SDS011;10839;43.206;23.550;2023-10-13T14:18:48;21.83;;;7.43;;
21360;SDS011;10839;43.206;23.550;2023-10-13T14:21:15;15.57;;;8.35;;
21360;SDS011;10839;43.206;23.550;2023-10-13T14:23:48;18.05;;;9.13;;
21360;SDS011;10839;43.206;23.550;2023-10-13T14:26:15;15.05;;;6.00;;
21360;SDS011;10839;43.206;23.550;2023-10-13T14:28:51;13.23;;;5.22;;
21360;SDS011;10839;43.206;23.550;2023-10-13T14:31:26;13.23;;;4.63;;
21360;SDS011;10839;43.206;23.550;2023-10-13T14:33:56;13.93;;;4.90;;
21360;SDS011;10839;43.206;23.550;2023-10-13T14:36:22;11.02;;;4.20;;
21360;SDS011;10839;43.206;23.550;2023-10-13T14:38:50;12.63;;;4.85;;
21360;SDS011;10839;43.206;23.550;2023-10-13T14:41:16;10.23;;;4.70;;
21360;SDS011;10839;43.206;23.550;2023-10-13T14:43:45;12.77;;;5.55;;
21360;SDS011;10839;43.206;23.550;2023-10-13T14:46:18;13.00;;;5.20;;
21360;SDS011;10839;43.206;23.550;2023-10-13T14:48:48;14.77;;;5.57;;
21360;SDS011;10839;43.206;23.550;2023-10-13T14:51:17;47.30;;;29.73;;
21360;SDS011;10839;43.206;23.550;2023-10-13T14:53:43;62.38;;;42.40;;
21360;SDS011;10839;43.206;23.550;2023-10-13T14:56:16;50.97;;;31.45;;
21360;SDS011;10839;43.206;23.550;2023-10-13T14:58:43;27.80;;;13.47;;
21360;SDS011;10839;43.206;23.550;2023-10-13T15:01:16;12.75;;;7.88;;
21360;SDS011;10839;43.206;23.550;2023-10-13T15:06:24;13.95;;;6.68;;
21360;SDS011;10839;43.206;23.550;2023-10-13T15:08:55;28.27;;;8.85;;
21360;SDS011;10839;43.206;23.550;2023-10-13T15:11:22;39.00;;;23.10;;
21360;SDS011;10839;43.206;23.550;2023-10-13T15:14:04;40.00;;;23.27;;
21360;SDS011;10839;43.206;23.550;2023-10-13T15:16:33;36.70;;;20.60;;
21360;SDS011;10839;43.206;23.550;2023-10-13T15:18:59;28.83;;;13.63;;
21360;SDS011;10839;43.206;23.550;2023-10-13T15:21:28;16.40;;;8.85;;
21360;SDS011;10839;43.206;23.550;2023-10-13T15:26:40;12.68;;;7.15;;
21360;SDS011;10839;43.206;23.550;2023-10-13T15:29:16;20.17;;;10.88;;
21360;SDS011;10839;43.206;23.550;2023-10-13T15:31:44;16.85;;;9.27;;
21360;SDS011;10839;43.206;23.550;2023-10-13T15:34:30;25.83;;;9.45;;
21360;SDS011;10839;43.206;23.550;2023-10-13T15:36:57;15.10;;;8.57;;
21360;SDS011;10839;43.206;23.550;2023-10-13T15:39:25;16.02;;;7.50;;